Time;durP1;ratioP1;P1;durP2;ratioP2;P2;SDS_P1;SDS_P2;PMS_P1;PMS_P2;Temp;Humidity;BMP_temperature;BMP_pressure;BME280_temperature;BME280_humidity;BME280_pressure;Samples;Min_cycle;Max_cycle;Signal;HPM_P1;HPM_P2
2022/12/11 00:00:49;;;;;;;;;;;;;;;-2.37;93.88;95784.91;5093725;28;19976;-74
2022/12/11 00:03:16;;;;;;;;;;;;;;;-2.41;93.76;95782.81;5092823;28;19944;-74
2022/12/11 00:05:42;;;;;;;;;;;;;;;-2.44;93.57;95773.63;5094012;28;19952;-74
2022/12/11 00:08:08;;;;;;;;;;;;;;;-2.47;93.30;95781.66;5093904;28;19961;-74
2022/12/11 00:10:34;;;;;;;;;;;;;;;-2.52;93.29;95778.72;5094058;28;19956;-74
2022/12/11 00:13:00;;;;;;;;;;;;;;;-2.57;93.36;95771.47;5093940;28;19949;-74
2022/12/11 00:15:26;;;;;;;;;;;;;;;-2.62;93.59;95780.63;5075759;28;20000;-73
2022/12/11 00:17:52;;;;;;;;;;;;;;;-2.64;93.91;95772.25;5093724;28;19944;-74
2022/12/11 00:20:18;;;;;;;;;;;;;;;-2.67;93.48;95769.03;5094105;28;20030;-74
2022/12/11 00:22:44;;;;;;;;;;;;;;;-2.72;93.84;95768.69;5093717;28;20033;-74
2022/12/11 00:25:10;;;;;;;;;;;;;;;-2.75;93.32;95774.13;5093787;28;20016;-74
2022/12/11 00:27:36;;;;;;;;;;;;;;;-2.79;93.29;95772.81;5093506;28;19945;-74
2022/12/11 00:30:02;;;;;;;;;;;;;;;-2.83;93.20;95765.53;5093697;28;19952;-74
2022/12/11 00:32:28;;;;;;;;;;;;;;;-2.87;93.06;95770.19;5093529;28;19955;-74
2022/12/11 00:34:54;;;;;;;;;;;;;;;-2.91;93.04;95774.03;5093518;28;19952;-74
2022/12/11 00:37:20;;;;;;;;;;;;;;;-2.95;93.15;95763.25;5093483;28;19977;-75
2022/12/11 00:39:46;;;;;;;;;;;;;;;-2.99;93.07;95768.81;5093575;28;19958;-74
2022/12/11 00:42:12;;;;;;;;;;;;;;;-3.03;93.53;95772.66;5093242;28;19965;-74
2022/12/11 00:44:38;;;;;;;;;;;;;;;-3.07;93.60;95772.97;5094063;28;19983;-74
2022/12/11 00:47:03;;;;;;;;;;;;;;;-3.07;93.84;95772.97;5092203;28;20376;-74
2022/12/11 00:49:29;;;;;;;;;;;;;;;-3.11;93.93;95784.47;5096678;28;20007;-74
2022/12/11 00:51:55;;;;;;;;;;;;;;;-3.12;94.01;95782.06;5096300;28;19958;-74
2022/12/11 00:54:21;;;;;;;;;;;;;;;-3.13;94.12;95786.38;5097625;28;20030;-73
2022/12/11 00:56:47;;;;;;;;;;;;;;;-3.14;94.37;95779.63;5097556;28;19949;-74
2022/12/11 00:59:13;;;;;;;;;;;;;;;-3.14;94.51;95781.38;5097734;28;20053;-74
2022/12/11 01:01:39;;;;;;;;;;;;;;;-3.13;94.33;95794.06;5097795;28;20464;-74
2022/12/11 01:04:05;;;;;;;;;;;;;;;-3.13;94.81;95791.50;5097542;28;20007;-75
2022/12/11 01:06:31;;;;;;;;;;;;;;;-3.12;94.57;95800.00;5097345;28;19959;-74
2022/12/11 01:11:42;;;;;;;;;;;;;;;-3.15;95.55;95810.53;5097756;28;19951;-74
2022/12/11 01:14:08;;;;;;;;;;;;;;;-3.15;95.47;95815.66;5096906;28;20400;-74
2022/12/11 01:16:34;;;;;;;;;;;;;;;-3.14;95.99;95820.66;5097165;28;19955;-74
2022/12/11 01:19:00;;;;;;;;;;;;;;;-3.12;96.44;95818.75;5096970;28;20322;-73
2022/12/11 01:21:26;;;;;;;;;;;;;;;-3.10;96.83;95824.53;5096765;28;19957;-74
2022/12/11 01:23:52;;;;;;;;;;;;;;;-3.07;96.95;95831.94;5095899;28;19945;-74
2022/12/11 01:26:18;;;;;;;;;;;;;;;-3.03;97.02;95835.00;5095831;28;19994;-74
2022/12/11 01:28:44;;;;;;;;;;;;;;;-3.00;97.05;95834.72;5096982;28;19946;-74
2022/12/11 01:31:11;;;;;;;;;;;;;;;-2.95;96.81;95840.19;5095749;28;20313;-74
2022/12/11 01:33:38;;;;;;;;;;;;;;;-2.91;97.35;95844.09;5096815;28;19952;-74
2022/12/11 01:36:11;;;;;;;;;;;;;;;-2.87;97.65;95842.84;5096635;28;19959;-75
2022/12/11 01:38:37;;;;;;;;;;;;;;;-2.82;98.05;95832.13;5096836;28;19948;-74
2022/12/11 01:41:03;;;;;;;;;;;;;;;-2.80;98.04;95826.84;5094760;28;20072;-74
2022/12/11 01:43:29;;;;;;;;;;;;;;;-2.75;97.89;95829.75;5096628;28;19978;-74
2022/12/11 01:45:55;;;;;;;;;;;;;;;-2.70;98.10;95832.69;5096438;28;19952;-74
2022/12/11 01:48:30;;;;;;;;;;;;;;;-2.69;98.05;95836.84;5095916;28;20358;-74
2022/12/11 01:51:01;;;;;;;;;;;;;;;-2.65;97.44;95843.28;5096288;28;19951;-74
2022/12/11 01:53:29;;;;;;;;;;;;;;;-2.61;97.83;95859.22;5096310;28;19946;-74
2022/12/11 01:55:56;;;;;;;;;;;;;;;-2.60;97.97;95842.84;5095318;28;19949;-74
2022/12/11 01:58:25;;;;;;;;;;;;;;;-2.58;97.98;95841.75;5096112;28;19949;-74
2022/12/11 02:00:51;;;;;;;;;;;;;;;-2.59;98.02;95845.25;5095878;28;19961;-74
2022/12/11 02:03:17;;;;;;;;;;;;;;;-2.55;98.26;95841.44;5096257;28;19956;-75
2022/12/11 02:05:43;;;;;;;;;;;;;;;-2.54;98.43;95829.41;5094745;28;20026;-74
2022/12/11 02:08:09;;;;;;;;;;;;;;;-2.53;98.22;95833.59;5096356;28;20012;-74
2022/12/11 02:10:42;;;;;;;;;;;;;;;-2.52;98.73;95837.75;5095967;28;19958;-73
2022/12/11 02:13:12;;;;;;;;;;;;;;;-2.53;98.37;95833.59;5082896;28;19951;-74
2022/12/11 02:15:47;;;;;;;;;;;;;;;-2.60;97.49;95830.00;5094942;28;19950;-74
2022/12/11 02:18:18;;;;;;;;;;;;;;;-2.64;97.69;95833.84;5095806;28;19958;-74
2022/12/11 02:21:17;;;;;;;;;;;;;;;-2.65;98.25;95840.72;5096575;28;19975;-74
2022/12/11 02:23:52;;;;;;;;;;;;;;;-2.63;98.88;95843.94;5066148;28;19946;-74
2022/12/11 02:26:44;;;;;;;;;;;;;;;-2.59;98.85;95847.81;5095648;28;19954;-73
2022/12/11 02:29:30;;;;;;;;;;;;;;;-2.55;98.88;95838.88;5082643;28;19952;-74
2022/12/11 02:32:00;;;;;;;;;;;;;;;-2.51;98.68;95845.31;5088147;28;20016;-74
2022/12/11 02:34:26;;;;;;;;;;;;;;;-2.47;98.78;95848.41;5095439;28;20319;-74
2022/12/11 02:36:56;;;;;;;;;;;;;;;-2.45;98.45;95849.06;5094075;28;19967;-76
2022/12/11 02:39:24;;;;;;;;;;;;;;;-2.45;98.61;95838.78;5096053;28;19950;-74
2022/12/11 02:41:50;;;;;;;;;;;;;;;-2.45;98.07;95837.00;5095209;28;19959;-74
2022/12/11 02:44:20;;;;;;;;;;;;;;;-2.44;97.66;95837.81;5095343;28;20338;-74
2022/12/11 02:46:45;;;;;;;;;;;;;;;-2.43;97.42;95836.88;5095487;28;19947;-74
2022/12/11 02:49:12;;;;;;;;;;;;;;;-2.41;97.06;95841.88;5095177;28;19956;-73
2022/12/11 02:51:40;;;;;;;;;;;;;;;-2.42;96.83;95838.47;5095257;28;20422;-74
2022/12/11 02:54:07;;;;;;;;;;;;;;;-2.43;96.83;95831.72;5095125;28;19951;-74
2022/12/11 02:56:37;;;;;;;;;;;;;;;-2.45;96.42;95839.56;5095214;28;20427;-74
2022/12/11 02:59:09;;;;;;;;;;;;;;;-2.47;96.20;95830.44;5094968;28;19957;-74
2022/12/11 03:01:35;;;;;;;;;;;;;;;-2.49;95.90;95837.47;5094034;28;19955;-74
2022/12/11 03:04:01;;;;;;;;;;;;;;;-2.52;95.92;95835.19;5093571;28;20446;-74
2022/12/11 03:06:30;;;;;;;;;;;;;;;-2.56;96.00;95836.44;5094984;28;20410;-74
2022/12/11 03:08:56;;;;;;;;;;;;;;;-2.59;95.62;95832.44;5095079;28;19952;-74
2022/12/11 03:11:22;;;;;;;;;;;;;;;-2.61;95.80;95833.53;5094383;28;20423;-74
2022/12/11 03:13:48;;;;;;;;;;;;;;;-2.61;95.80;95838.69;5094725;28;20039;-74
2022/12/11 03:16:21;;;;;;;;;;;;;;;-2.64;95.98;95834.66;5094771;28;20461;-74
2022/12/11 03:18:57;;;;;;;;;;;;;;;-2.66;96.14;95841.69;5093814;28;20402;-74
2022/12/11 03:21:44;;;;;;;;;;;;;;;-2.69;96.37;95829.97;5094572;28;19966;-74
2022/12/11 03:24:14;;;;;;;;;;;;;;;-2.70;96.35;95836.06;5093290;28;20421;-74
2022/12/11 03:26:42;;;;;;;;;;;;;;;-2.74;95.93;95837.31;5094379;28;19942;-74
2022/12/11 03:29:31;;;;;;;;;;;;;;;-2.75;95.74;95834.88;5094538;28;19957;-74
2022/12/11 03:32:03;;;;;;;;;;;;;;;-2.78;95.32;95838.56;5088838;28;19950;-75
2022/12/11 03:34:31;;;;;;;;;;;;;;;-2.79;95.41;95839.53;5094545;28;19951;-74
2022/12/11 03:36:58;;;;;;;;;;;;;;;-2.81;95.59;95843.19;5094108;28;19973;-74
2022/12/11 03:39:28;;;;;;;;;;;;;;;-2.82;95.45;95847.50;5093518;28;19951;-74
2022/12/11 03:41:54;;;;;;;;;;;;;;;-2.84;95.59;95844.28;5093394;28;19970;-74
2022/12/11 03:44:22;;;;;;;;;;;;;;;-2.86;95.46;95838.50;5092095;28;20019;-74
2022/12/11 03:46:49;;;;;;;;;;;;;;;-2.87;95.20;95842.03;5093789;28;19953;-74
2022/12/11 03:49:16;;;;;;;;;;;;;;;-2.88;95.81;95846.38;5093315;28;19952;-74
2022/12/11 03:51:44;;;;;;;;;;;;;;;-2.89;95.92;95844.75;5093298;28;19951;-74
2022/12/11 03:54:10;;;;;;;;;;;;;;;-2.91;95.84;95838.94;5093271;28;19948;-73
2022/12/11 03:56:37;;;;;;;;;;;;;;;-2.91;95.78;95843.28;5093907;28;19948;-74
2022/12/11 03:59:03;;;;;;;;;;;;;;;-2.93;95.89;95840.84;5093642;28;20336;-74
2022/12/11 04:01:29;;;;;;;;;;;;;;;-2.94;95.50;95835.88;5093157;28;19971;-74
2022/12/11 04:03:55;;;;;;;;;;;;;;;-2.96;95.08;95827.50;5093514;28;20324;-74
2022/12/11 04:06:21;;;;;;;;;;;;;;;-2.97;95.50;95831.84;5092954;28;19950;-74
2022/12/11 04:08:47;;;;;;;;;;;;;;;-2.98;95.66;95832.00;5092342;28;19947;-74
2022/12/11 04:16:42;;;;;;;;;;;;;;;-2.96;96.15;95825.78;5082777;28;19959;-75
2022/12/11 04:24:37;;;;;;;;;;;;;;;-2.95;97.07;95831.72;5092472;28;20321;-74
2022/12/11 04:27:03;;;;;;;;;;;;;;;-2.95;96.96;95835.06;5092784;28;19946;-75
2022/12/11 04:29:29;;;;;;;;;;;;;;;-2.96;96.69;95832.66;5092872;28;20389;-75
2022/12/11 04:31:55;;;;;;;;;;;;;;;-2.95;96.78;95837.63;5092777;28;19959;-74
2022/12/11 04:34:21;;;;;;;;;;;;;;;-2.95;97.33;95834.28;5092834;28;19960;-74
2022/12/11 04:36:47;;;;;;;;;;;;;;;-2.94;97.39;95826.44;5029200;28;1788185;-74
2022/12/11 04:39:13;;;;;;;;;;;;;;;-2.92;96.98;95833.97;5093959;28;20393;-74
2022/12/11 04:41:40;;;;;;;;;;;;;;;-2.91;97.17;95836.38;5093543;28;20301;-74
2022/12/11 04:44:06;;;;;;;;;;;;;;;-2.92;97.09;95833.97;5092762;28;20289;-74
2022/12/11 04:46:32;;;;;;;;;;;;;;;-2.92;96.55;95821.97;5093401;28;19972;-74
2022/12/11 04:48:59;;;;;;;;;;;;;;;-2.94;96.12;95823.88;5092601;28;20425;-74
2022/12/11 04:51:25;;;;;;;;;;;;;;;-3.00;96.09;95818.50;5093717;28;20296;-74
2022/12/11 04:53:51;;;;;;;;;;;;;;;-3.07;96.03;95815.72;5093431;28;19950;-74
2022/12/11 04:56:17;;;;;;;;;;;;;;;-3.15;96.66;95813.09;5093701;28;20316;-75
2022/12/11 04:58:44;;;;;;;;;;;;;;;-3.23;96.79;95813.88;5092965;28;19949;-74
2022/12/11 05:01:11;;;;;;;;;;;;;;;-3.29;97.07;95814.44;5092054;28;19963;-74
2022/12/11 05:03:37;;;;;;;;;;;;;;;-3.27;97.61;95815.91;5093425;28;19960;-75
2022/12/11 05:06:03;;;;;;;;;;;;;;;-3.24;97.63;95814.78;5093298;28;19945;-74
2022/12/11 05:08:29;;;;;;;;;;;;;;;-3.20;97.70;95813.56;5092159;28;19948;-74
2022/12/11 05:10:59;;;;;;;;;;;;;;;-3.17;97.65;95808.16;5092200;28;19978;-74
2022/12/11 05:13:25;;;;;;;;;;;;;;;-3.13;97.83;95806.06;5093384;28;19938;-74
2022/12/11 05:15:51;;;;;;;;;;;;;;;-3.10;97.31;95811.72;5093632;28;19959;-75
2022/12/11 05:18:17;;;;;;;;;;;;;;;-3.08;97.21;95814.13;5092546;28;19955;-74
2022/12/11 05:20:43;;;;;;;;;;;;;;;-3.07;97.73;95814.00;5093350;28;19945;-74
2022/12/11 05:23:09;;;;;;;;;;;;;;;-3.04;97.38;95814.63;5093105;28;20009;-74
2022/12/11 05:25:35;;;;;;;;;;;;;;;-3.03;97.13;95806.78;5093103;28;19986;-74
2022/12/11 05:28:00;;;;;;;;;;;;;;;-3.02;96.78;95810.97;5093272;28;19954;-75
2022/12/11 05:30:26;;;;;;;;;;;;;;;-3.01;96.47;95814.34;5093147;28;19950;-74
2022/12/11 05:32:52;;;;;;;;;;;;;;;-3.01;95.90;95806.66;5091840;28;19946;-74
2022/12/11 05:35:18;;;;;;;;;;;;;;;-3.03;95.50;95798.28;5095438;28;19949;-74
2022/12/11 05:37:44;;;;;;;;;;;;;;;-3.03;95.33;95799.09;5096411;28;19968;-74
2022/12/11 05:40:13;;;;;;;;;;;;;;;-3.03;95.34;95793.97;5096723;28;20410;-74
2022/12/11 05:42:39;;;;;;;;;;;;;;;-3.02;95.68;95782.75;5095233;28;19968;-74
2022/12/11 05:45:05;;;;;;;;;;;;;;;-3.03;95.24;95778.56;5095479;28;20339;-74
2022/12/11 05:47:31;;;;;;;;;;;;;;;-3.03;95.34;95772.66;5095096;28;19942;-74
2022/12/11 05:49:57;;;;;;;;;;;;;;;-3.05;94.90;95770.22;5078286;28;19948;-73
2022/12/11 05:52:23;;;;;;;;;;;;;;;-3.04;95.03;95773.59;5095328;28;20005;-74
2022/12/11 05:54:49;;;;;;;;;;;;;;;-3.08;94.86;95771.34;5096119;28;20004;-75
2022/12/11 05:57:15;;;;;;;;;;;;;;;-3.09;94.34;95772.31;5096681;28;19953;-74
2022/12/11 05:59:41;;;;;;;;;;;;;;;-3.10;94.67;95775.00;5095132;28;20302;-74
2022/12/11 06:02:07;;;;;;;;;;;;;;;-3.13;94.21;95771.00;5095525;28;19963;-74
2022/12/11 06:04:33;;;;;;;;;;;;;;;-3.15;94.64;95772.91;5096117;28;19950;-74
2022/12/11 06:06:58;;;;;;;;;;;;;;;-3.15;94.42;95762.63;5096357;28;19954;-74
2022/12/11 06:09:24;;;;;;;;;;;;;;;-3.18;94.31;95770.63;5094756;28;20341;-74
2022/12/11 06:11:50;;;;;;;;;;;;;;;-3.20;94.31;95759.69;5095902;28;19949;-74
2022/12/11 06:14:16;;;;;;;;;;;;;;;-3.21;94.13;95758.09;5094702;28;19963;-74
2022/12/11 06:16:42;;;;;;;;;;;;;;;-3.23;94.17;95761.75;5095927;28;20394;-74
2022/12/11 06:19:12;;;;;;;;;;;;;;;-3.27;94.08;95762.06;5096012;28;20000;-75
2022/12/11 06:21:37;;;;;;;;;;;;;;;-3.29;94.29;95766.53;5095853;28;19959;-75
2022/12/11 06:24:04;;;;;;;;;;;;;;;-3.31;93.79;95771.00;5095703;28;19945;-74
2022/12/11 06:26:30;;;;;;;;;;;;;;;-3.38;94.05;95775.13;5095750;28;19953;-74
2022/12/11 06:28:56;;;;;;;;;;;;;;;-3.47;94.23;95769.09;5095658;28;20421;-74
2022/12/11 06:31:22;;;;;;;;;;;;;;;-3.52;94.45;95762.81;5095549;28;19996;-74
2022/12/11 06:33:48;;;;;;;;;;;;;;;-3.57;94.23;95760.72;5095590;28;19950;-74
2022/12/11 06:36:19;;;;;;;;;;;;;;;-3.59;94.21;95761.78;5095318;28;20419;-75
2022/12/11 06:38:45;;;;;;;;;;;;;;;-3.61;94.36;95767.06;5095445;28;20313;-75
2022/12/11 06:41:11;;;;;;;;;;;;;;;-3.64;94.15;95753.75;5095288;28;19956;-74
2022/12/11 06:43:39;;;;;;;;;;;;;;;-3.65;93.94;95772.63;5094054;28;19960;-74
2022/12/11 06:46:09;;;;;;;;;;;;;;;-3.67;93.97;95771.03;5093582;28;20430;-73
2022/12/11 06:48:35;;;;;;;;;;;;;;;-3.70;93.67;95770.50;5095341;28;19948;-74
2022/12/11 06:51:05;;;;;;;;;;;;;;;-3.72;93.42;95774.97;5094145;28;20003;-74
2022/12/11 06:53:31;;;;;;;;;;;;;;;-3.74;93.19;95781.97;5095360;28;19944;-74
2022/12/11 06:56:07;;;;;;;;;;;;;;;-3.75;93.67;95777.81;5095093;28;20378;-74
2022/12/11 06:58:34;;;;;;;;;;;;;;;-3.78;93.51;95776.38;5095243;28;19956;-74
2022/12/11 07:01:00;;;;;;;;;;;;;;;-3.79;93.45;95781.63;5093824;28;19962;-74
2022/12/11 07:03:26;;;;;;;;;;;;;;;-3.81;93.48;95775.84;5095065;28;19965;-74
2022/12/11 07:05:52;;;;;;;;;;;;;;;-3.82;93.31;95781.91;5093675;28;19962;-74
2022/12/11 07:08:18;;;;;;;;;;;;;;;-3.82;93.59;95777.59;5095043;28;20385;-74
2022/12/11 07:10:44;;;;;;;;;;;;;;;-3.81;93.23;95779.19;5093631;28;20038;-74
2022/12/11 07:13:10;;;;;;;;;;;;;;;-3.80;93.69;95783.38;5094878;28;19954;-74
2022/12/11 07:15:36;;;;;;;;;;;;;;;-3.80;93.62;95785.13;5094808;28;20050;-74
2022/12/11 07:18:02;;;;;;;;;;;;;;;-3.78;93.51;95783.22;5094810;28;20045;-74
2022/12/11 07:20:27;;;;;;;;;;;;;;;-3.76;93.33;95783.88;5095459;28;19952;-74
2022/12/11 07:22:53;;;;;;;;;;;;;;;-3.73;93.63;95786.97;5094526;28;20040;-74
2022/12/11 07:25:19;;;;;;;;;;;;;;;-3.68;94.08;95782.19;5094409;28;20036;-73
2022/12/11 07:27:45;;;;;;;;;;;;;;;-3.63;93.69;95783.53;5094797;28;19952;-74
2022/12/11 07:30:11;;;;;;;;;;;;;;;-3.57;94.02;95788.06;5094707;28;20432;-74
2022/12/11 07:32:37;;;;;;;;;;;;;;;-3.54;94.48;95786.03;5093258;28;20301;-74
2022/12/11 07:35:03;;;;;;;;;;;;;;;-3.45;93.84;95780.97;5093773;28;20032;-74
2022/12/11 07:37:29;;;;;;;;;;;;;;;-3.39;94.06;95780.38;5094451;28;19970;-74
2022/12/11 07:39:55;;;;;;;;;;;;;;;-3.31;94.52;95790.72;5093753;28;20050;-74
2022/12/11 07:42:21;;;;;;;;;;;;;;;-3.23;94.56;95787.38;5092990;28;19990;-74
2022/12/11 07:44:47;;;;;;;;;;;;;;;-3.14;94.19;95787.31;5094300;28;19949;-74
2022/12/11 07:47:13;;;;;;;;;;;;;;;-3.11;93.82;95770.81;5094043;28;19949;-74
2022/12/11 07:49:39;;;;;;;;;;;;;;;-3.03;93.63;95775.22;5093106;28;20341;-74
2022/12/11 07:52:05;;;;;;;;;;;;;;;-2.98;93.23;95768.69;5094005;28;19992;-74
2022/12/11 07:54:30;;;;;;;;;;;;;;;-2.86;92.45;95766.66;5076131;28;20034;-74
2022/12/11 07:56:56;;;;;;;;;;;;;;;-2.72;91.78;95773.81;5094126;28;20391;-74
2022/12/11 07:59:22;;;;;;;;;;;;;;;-2.65;90.75;95774.00;5094047;28;20009;-74
2022/12/11 08:01:48;;;;;;;;;;;;;;;-2.60;91.13;95781.25;5093865;28;19990;-74
2022/12/11 08:04:14;;;;;;;;;;;;;;;-2.47;91.59;95779.88;5094370;28;20403;-74
2022/12/11 08:06:41;;;;;;;;;;;;;;;-2.30;91.74;95777.38;5093883;28;20019;-74
2022/12/11 08:09:08;;;;;;;;;;;;;;;-2.11;91.34;95777.13;5094102;28;19953;-74
2022/12/11 08:11:34;;;;;;;;;;;;;;;-1.87;90.81;95780.72;5093976;28;20431;-74
2022/12/11 08:14:01;;;;;;;;;;;;;;;-1.66;88.50;95770.84;5092980;28;19953;-74
2022/12/11 08:16:27;;;;;;;;;;;;;;;-1.54;86.62;95765.38;5093699;28;19954;-74
2022/12/11 08:18:53;;;;;;;;;;;;;;;-1.50;85.48;95757.19;5093830;28;19947;-74
2022/12/11 08:21:21;;;;;;;;;;;;;;;-1.43;87.32;95777.91;5094110;28;19950;-74
2022/12/11 08:23:47;;;;;;;;;;;;;;;-1.34;86.70;95773.63;5093965;28;20350;-74
2022/12/11 08:26:14;;;;;;;;;;;;;;;-1.42;86.83;95781.31;5094162;28;20303;-74
2022/12/11 08:28:40;;;;;;;;;;;;;;;-1.63;85.91;95782.56;5093662;28;19948;-74
2022/12/11 08:31:07;;;;;;;;;;;;;;;-1.85;86.81;95791.66;5093535;28;20017;-74
2022/12/11 08:33:33;;;;;;;;;;;;;;;-2.01;87.54;95791.63;5093909;28;20392;-74
2022/12/11 08:36:03;;;;;;;;;;;;;;;-2.15;88.33;95790.44;5093317;28;20413;-74
2022/12/11 08:38:29;;;;;;;;;;;;;;;-2.20;88.85;95797.81;5093829;28;19951;-74
2022/12/11 08:40:55;;;;;;;;;;;;;;;-2.26;89.22;95794.91;5093638;28;20424;-74
2022/12/11 08:43:20;;;;;;;;;;;;;;;-2.28;89.63;95796.03;5093421;28;20019;-74
2022/12/11 08:45:46;;;;;;;;;;;;;;;-2.33;89.82;95787.94;5092545;28;19967;-74
2022/12/11 08:48:12;;;;;;;;;;;;;;;-2.45;88.71;95777.97;5093635;28;20006;-74
2022/12/11 08:50:38;;;;;;;;;;;;;;;-2.55;89.91;95786.75;5093502;28;19989;-74
2022/12/11 08:53:04;;;;;;;;;;;;;;;-2.61;90.10;95795.03;5092217;28;20402;-74
2022/12/11 08:55:30;;;;;;;;;;;;;;;-2.62;90.16;95790.88;5092411;28;19950;-74
2022/12/11 08:57:56;;;;;;;;;;;;;;;-2.64;90.41;95791.03;5093389;28;19955;-73
2022/12/11 09:00:22;;;;;;;;;;;;;;;-2.67;90.37;95788.75;5075063;28;20045;-74
2022/12/11 09:02:48;;;;;;;;;;;;;;;-2.72;90.17;95793.53;5093527;28;19969;-74
2022/12/11 09:05:14;;;;;;;;;;;;;;;-2.82;90.79;95785.13;5093402;28;19989;-74
2022/12/11 09:07:40;;;;;;;;;;;;;;;-2.90;89.88;95780.75;5093641;28;19955;-75
2022/12/11 09:10:06;;;;;;;;;;;;;;;-3.03;90.77;95782.91;5094208;28;19958;-74
2022/12/11 09:12:33;;;;;;;;;;;;;;;-3.04;92.00;95782.09;5097347;28;19960;-74
2022/12/11 09:14:59;;;;;;;;;;;;;;;-2.94;92.11;95784.56;5097151;28;19955;-74
2022/12/11 09:17:25;;;;;;;;;;;;;;;-2.95;90.74;95772.72;5096905;28;19944;-74
2022/12/11 09:19:51;;;;;;;;;;;;;;;-2.94;92.24;95777.69;5095948;28;20035;-74
2022/12/11 09:22:17;;;;;;;;;;;;;;;-2.88;92.61;95783.97;5096860;28;19967;-74
2022/12/11 09:24:42;;;;;;;;;;;;;;;-2.87;91.80;95775.31;5096945;28;19951;-74
2022/12/11 09:27:09;;;;;;;;;;;;;;;-2.86;93.23;95780.31;5095656;28;19958;-73
2022/12/11 09:29:35;;;;;;;;;;;;;;;-2.79;93.26;95783.09;5097308;28;19969;-74
2022/12/11 09:32:00;;;;;;;;;;;;;;;-2.76;93.09;95780.19;5097011;28;19997;-74
2022/12/11 09:34:26;;;;;;;;;;;;;;;-2.74;92.40;95778.28;5097187;28;19992;-74
2022/12/11 09:36:52;;;;;;;;;;;;;;;-2.83;92.56;95776.63;5096427;28;19981;-74
2022/12/11 09:39:18;;;;;;;;;;;;;;;-2.87;93.58;95776.13;5096705;28;19954;-74
2022/12/11 09:42:02;;;;;;;;;;;;;;;-2.86;94.05;95782.06;5096777;28;20014;-73
2022/12/11 09:44:28;;;;;;;;;;;;;;;-2.84;93.88;95779.34;5096121;28;20327;-74
2022/12/11 09:46:55;;;;;;;;;;;;;;;-2.82;94.35;95782.56;5096728;28;19954;-75
2022/12/11 09:49:33;;;;;;;;;;;;;;;-2.81;94.05;95785.00;5084444;28;19958;-74
2022/12/11 09:52:04;;;;;;;;;;;;;;;-2.79;94.03;95779.69;5095385;28;19961;-74
2022/12/11 09:54:31;;;;;;;;;;;;;;;-2.74;94.47;95780.84;5095440;28;19971;-74
2022/12/11 09:57:14;;;;;;;;;;;;;;;-2.69;94.06;95772.69;5096868;28;19957;-74
2022/12/11 09:59:58;;;;;;;;;;;;;;;-2.62;94.74;95773.72;5096217;28;19952;-74
2022/12/11 10:02:36;;;;;;;;;;;;;;;-2.55;94.04;95761.88;5096199;28;19962;-74
2022/12/11 10:05:12;;;;;;;;;;;;;;;-2.53;93.54;95765.09;5096151;28;19944;-74
2022/12/11 10:07:47;;;;;;;;;;;;;;;-2.51;93.08;95754.66;5096034;28;19953;-74
2022/12/11 10:10:13;;;;;;;;;;;;;;;-2.54;93.55;95752.41;5096471;28;19950;-74
2022/12/11 10:12:51;;;;;;;;;;;;;;;-2.56;94.32;95754.31;5096013;28;19946;-74
2022/12/11 10:15:28;;;;;;;;;;;;;;;-2.52;93.55;95742.78;5096107;28;19950;-74
2022/12/11 10:17:56;;;;;;;;;;;;;;;-2.53;93.45;95738.63;5094880;28;19950;-74
2022/12/11 10:20:34;;;;;;;;;;;;;;;-2.50;94.25;95749.41;5095888;28;19942;-74
2022/12/11 10:23:00;;;;;;;;;;;;;;;-2.37;94.09;95748.13;5095785;28;19963;-74
2022/12/11 10:25:31;;;;;;;;;;;;;;;-2.32;93.79;95741.59;5095662;28;19948;-74
2022/12/11 10:27:57;;;;;;;;;;;;;;;-2.23;94.17;95734.72;5094576;28;19957;-74
2022/12/11 10:30:34;;;;;;;;;;;;;;;-2.19;93.10;95733.44;5094834;28;19961;-73
2022/12/11 10:33:17;;;;;;;;;;;;;;;-2.15;92.47;95734.75;5095769;28;20313;-74
2022/12/11 10:35:48;;;;;;;;;;;;;;;-2.15;91.39;95731.38;5094491;28;19956;-75
2022/12/11 10:38:16;;;;;;;;;;;;;;;-2.14;93.21;95732.97;5083912;28;20342;-74
2022/12/11 10:40:43;;;;;;;;;;;;;;;-2.08;93.26;95734.91;5095642;28;19957;-74
2022/12/11 10:43:09;;;;;;;;;;;;;;;-2.05;93.12;95737.19;5095258;28;19961;-74
2022/12/11 10:45:36;;;;;;;;;;;;;;;-2.05;92.77;95727.72;5095563;28;20452;-76
2022/12/11 10:48:06;;;;;;;;;;;;;;;-2.06;92.60;95723.53;5077341;28;19946;-74
2022/12/11 10:50:32;;;;;;;;;;;;;;;-2.08;92.74;95722.91;5093836;28;19957;-74
2022/12/11 10:52:58;;;;;;;;;;;;;;;-2.08;93.27;95719.50;5095291;28;19943;-74
2022/12/11 10:55:36;;;;;;;;;;;;;;;-2.10;93.06;95714.53;5095170;28;19955;-74
2022/12/11 10:58:04;;;;;;;;;;;;;;;-2.03;92.72;95712.13;5095101;28;19962;-74
2022/12/11 11:00:33;;;;;;;;;;;;;;;-2.01;92.48;95706.84;5094924;28;19947;-74
2022/12/11 11:02:59;;;;;;;;;;;;;;;-1.95;92.65;95701.88;5093873;28;19958;-74
2022/12/11 11:05:30;;;;;;;;;;;;;;;-1.86;93.21;95705.25;5094975;28;19952;-74
2022/12/11 11:08:13;;;;;;;;;;;;;;;-1.75;92.57;95707.50;5095163;28;20399;-74
2022/12/11 11:10:49;;;;;;;;;;;;;;;-1.68;91.69;95698.22;5094938;28;19947;-74
2022/12/11 11:13:15;;;;;;;;;;;;;;;-1.69;90.87;95699.16;5094770;28;19956;-74
2022/12/11 11:15:41;;;;;;;;;;;;;;;-1.75;92.05;95689.53;5094839;28;19955;-74
2022/12/11 11:18:15;;;;;;;;;;;;;;;-1.70;92.72;95692.44;5094676;28;19953;-75
2022/12/11 11:20:45;;;;;;;;;;;;;;;-1.61;91.87;95689.88;5094813;28;19948;-73
2022/12/11 11:23:12;;;;;;;;;;;;;;;-1.60;91.25;95687.13;5094658;28;19963;-75
2022/12/11 11:25:47;;;;;;;;;;;;;;;-1.61;91.68;95685.53;5094533;28;19956;-74
2022/12/11 11:28:21;;;;;;;;;;;;;;;-1.68;91.32;95685.38;5094827;28;19961;-73
2022/12/11 11:30:58;;;;;;;;;;;;;;;-1.80;90.74;95680.72;5094450;28;19950;-75
2022/12/11 11:33:24;;;;;;;;;;;;;;;-1.82;91.83;95690.34;5092595;28;19949;-74
2022/12/11 11:36:13;;;;;;;;;;;;;;;-1.78;92.45;95684.72;5093872;28;20320;-74
2022/12/11 11:38:38;;;;;;;;;;;;;;;-1.73;92.23;95679.88;5094134;28;19948;-74
2022/12/11 11:41:23;;;;;;;;;;;;;;;-1.74;91.85;95680.03;5094271;28;19956;-74
2022/12/11 11:43:53;;;;;;;;;;;;;;;-1.73;92.31;95679.09;5094297;28;19969;-74
2022/12/11 11:46:33;;;;;;;;;;;;;;;-1.74;92.42;95682.59;5094344;28;19951;-74
2022/12/11 11:49:02;;;;;;;;;;;;;;;-1.80;92.93;95684.06;5093132;28;19955;-74
2022/12/11 11:51:40;;;;;;;;;;;;;;;-1.76;93.24;95680.22;5092964;28;19945;-74
2022/12/11 11:54:35;;;;;;;;;;;;;;;-1.77;92.61;95678.59;5094460;28;19945;-74
2022/12/11 11:57:12;;;;;;;;;;;;;;;-1.74;93.43;95680.03;5078844;28;19954;-74
2022/12/11 11:59:41;;;;;;;;;;;;;;;-1.69;92.61;95678.59;5094437;28;20379;-74
2022/12/11 12:02:15;;;;;;;;;;;;;;;-1.69;92.24;95676.03;5094141;28;20316;-73
2022/12/11 12:04:41;;;;;;;;;;;;;;;-1.68;92.79;95680.22;5078987;28;19962;-74
2022/12/11 12:07:31;;;;;;;;;;;;;;;-1.68;93.30;95680.22;5075761;28;19952;-74
2022/12/11 12:10:09;;;;;;;;;;;;;;;-1.60;93.62;95676.84;5094057;28;20350;-75
2022/12/11 12:12:54;;;;;;;;;;;;;;;-1.50;93.48;95666.41;5093846;28;19963;-74
2022/12/11 12:15:33;;;;;;;;;;;;;;;-1.45;93.29;95667.53;5092606;28;19958;-74
2022/12/11 12:18:19;;;;;;;;;;;;;;;-1.40;93.55;95669.59;5093666;28;19955;-74
2022/12/11 12:20:45;;;;;;;;;;;;;;;-1.40;91.86;95654.19;5093989;28;19967;-74
2022/12/11 12:23:14;;;;;;;;;;;;;;;-1.49;91.77;95661.09;5092297;28;19968;-73
2022/12/11 12:25:47;;;;;;;;;;;;;;;-1.48;93.55;95660.13;5094258;28;20312;-74
2022/12/11 12:28:19;;;;;;;;;;;;;;;-1.41;93.06;95654.34;5084598;28;19957;-74
2022/12/11 12:30:51;;;;;;;;;;;;;;;-1.34;92.82;95645.03;5093529;28;19952;-75
2022/12/11 12:33:20;;;;;;;;;;;;;;;-1.33;92.31;95644.03;5093743;28;20422;-74
2022/12/11 12:35:49;;;;;;;;;;;;;;;-1.32;91.89;95637.94;5093534;28;19940;-74
2022/12/11 12:38:29;;;;;;;;;;;;;;;-1.32;91.86;95640.50;5092246;28;19961;-74
2022/12/11 12:41:14;;;;;;;;;;;;;;;-1.34;91.17;95639.88;5093807;28;19952;-74
2022/12/11 12:43:43;;;;;;;;;;;;;;;-1.36;92.06;95644.38;5093410;28;19967;-74
2022/12/11 12:46:28;;;;;;;;;;;;;;;-1.35;91.69;95636.47;5097544;28;19954;-74
2022/12/11 12:48:55;;;;;;;;;;;;;;;-1.30;91.46;95639.38;5096727;28;19951;-74
2022/12/11 12:51:22;;;;;;;;;;;;;;;-1.26;92.21;95640.66;5097547;28;19948;-74
2022/12/11 12:53:53;;;;;;;;;;;;;;;-1.24;90.91;95627.59;5097463;28;20385;-74
2022/12/11 12:56:20;;;;;;;;;;;;;;;-1.20;91.91;95635.81;5096732;28;19947;-74
2022/12/11 12:58:46;;;;;;;;;;;;;;;-1.13;91.73;95637.56;5097834;28;19948;-74
2022/12/11 13:01:12;;;;;;;;;;;;;;;-1.10;91.02;95631.28;5096289;28;19944;-74
2022/12/11 13:03:57;;;;;;;;;;;;;;;-1.10;91.34;95636.44;5096195;28;19953;-74
2022/12/11 13:06:28;;;;;;;;;;;;;;;-1.11;91.38;95633.06;5097464;28;19953;-74
2022/12/11 13:08:54;;;;;;;;;;;;;;;-1.07;92.25;95639.50;5097539;28;19955;-74